Time;durP1;ratioP1;P1;durP2;ratioP2;P2;SDS_P1;SDS_P2;PMS_P1;PMS_P2;Temp;Humidity;BMP_temperature;BMP_pressure;BME280_temperature;BME280_humidity;BME280_pressure;Samples;Min_cycle;Max_cycle;Signal;HPM_P1;HPM_P2
2023/03/21 00:02:02;;;;;;;5.38;3.65;;;;;;;5.78;100.00;95711.63;5023523;28;20540;-72
2023/03/21 00:04:27;;;;;;;4.97;3.20;;;;;;;5.86;100.00;95708.63;5024988;28;20042;-72
2023/03/21 00:06:53;;;;;;;5.45;3.38;;;;;;;5.84;100.00;95708.06;5027734;28;20671;-72
2023/03/21 00:09:20;;;;;;;5.78;3.47;;;;;;;5.89;100.00;95698.50;5027114;28;20042;-72
2023/03/21 00:11:47;;;;;;;5.18;3.22;;;;;;;5.97;100.00;95694.75;5023271;28;20037;-71
2023/03/21 00:14:19;;;;;;;7.28;3.60;;;;;;;5.90;100.00;95694.06;5023273;28;20034;-72
2023/03/21 00:16:49;;;;;;;5.22;3.17;;;;;;;5.86;100.00;95693.75;5022121;28;20045;-72
2023/03/21 00:19:19;;;;;;;6.15;3.25;;;;;;;5.84;100.00;95690.56;5022026;28;20065;-72
2023/03/21 00:21:45;;;;;;;8.90;3.50;;;;;;;5.76;100.00;95667.47;5024816;28;20041;-72
2023/03/21 00:24:11;;;;;;;5.95;3.10;;;;;;;5.86;100.00;95687.72;5018155;28;20033;-72
2023/03/21 00:26:37;;;;;;;6.65;3.33;;;;;;;5.81;100.00;95685.03;5026269;28;20468;-72
2023/03/21 00:29:02;;;;;;;8.77;3.13;;;;;;;5.79;100.00;95687.06;5026433;28;20056;-72
2023/03/21 00:31:28;;;;;;;4.75;3.17;;;;;;;5.78;100.00;95680.28;5023954;28;20045;-72
2023/03/21 00:33:53;;;;;;;5.63;3.35;;;;;;;5.69;100.00;95672.81;5024458;28;20042;-72
2023/03/21 00:36:20;;;;;;;5.47;3.50;;;;;;;5.68;100.00;95681.66;5027400;28;20041;-72
2023/03/21 00:38:45;;;;;;;4.93;3.10;;;;;;;5.66;100.00;95677.69;5023156;28;20045;-72
2023/03/21 00:41:13;;;;;;;4.47;2.83;;;;;;;5.66;100.00;95675.91;5016617;28;20930;-72
2023/03/21 00:43:39;;;;;;;5.75;2.90;;;;;;;5.59;100.00;95667.41;5025468;28;20048;-72
2023/03/21 00:46:05;;;;;;;6.00;2.90;;;;;;;5.56;100.00;95667.88;5022838;28;20361;-72
2023/03/21 00:48:31;;;;;;;6.38;2.78;;;;;;;5.57;100.00;95674.66;5026906;28;20041;-73
2023/03/21 00:50:59;;;;;;;6.45;2.78;;;;;;;5.58;100.00;95662.44;5022330;28;20037;-72
2023/03/21 00:53:25;;;;;;;8.80;3.33;;;;;;;5.55;100.00;95669.69;5025699;28;20060;-72
2023/03/21 00:55:51;;;;;;;4.80;2.85;;;;;;;5.53;100.00;95663.09;5023454;28;20409;-72
2023/03/21 00:58:17;;;;;;;3.58;2.45;;;;;;;5.47;100.00;95658.81;5028418;28;20038;-72
2023/03/21 01:00:45;;;;;;;7.43;3.03;;;;;;;5.54;100.00;95659.47;5022095;28;20056;-72
2023/03/21 01:03:15;;;;;;;6.75;2.75;;;;;;;5.57;100.00;95659.00;5026964;28;20052;-72
2023/03/21 01:06:05;;;;;;;5.60;3.13;;;;;;;5.51;100.00;95660.72;5020849;28;20034;-72
2023/03/21 01:08:37;;;;;;;5.18;3.08;;;;;;;5.54;100.00;95654.25;5021204;28;20493;-72
2023/03/21 01:11:10;;;;;;;5.00;2.72;;;;;;;5.52;100.00;95645.88;5026966;28;20084;-73
2023/03/21 01:13:35;;;;;;;5.28;2.88;;;;;;;5.49;100.00;95644.53;5025970;28;20460;-73
2023/03/21 01:16:04;;;;;;;7.63;3.10;;;;;;;5.57;100.00;95643.34;5026865;28;20049;-72
2023/03/21 01:18:30;;;;;;;4.60;2.70;;;;;;;5.54;100.00;95643.81;5027024;28;20579;-72
2023/03/21 01:20:59;;;;;;;6.75;3.33;;;;;;;5.58;100.00;95650.16;5028797;28;20501;-72
2023/03/21 01:23:26;;;;;;;6.15;3.13;;;;;;;5.55;100.00;95640.19;5026874;28;20044;-72
2023/03/21 01:25:54;;;;;;;6.45;2.70;;;;;;;5.58;100.00;95634.50;5027787;28;20037;-72
2023/03/21 01:28:19;;;;;;;4.93;3.10;;;;;;;5.51;100.00;95644.28;5030554;28;20046;-73
2023/03/21 01:30:46;;;;;;;5.40;2.80;;;;;;;5.48;100.00;95639.53;5028467;28;20075;-73
2023/03/21 01:33:13;;;;;;;6.25;3.28;;;;;;;5.53;100.00;95642.22;5022280;28;20091;-72
2023/03/21 01:35:39;;;;;;;4.75;3.05;;;;;;;5.52;100.00;95633.59;5027816;28;20402;-73
2023/03/21 01:38:04;;;;;;;4.30;2.97;;;;;;;5.54;100.00;95638.59;5029038;28;20095;-73
2023/03/21 01:40:30;;;;;;;4.88;2.97;;;;;;;5.57;100.00;95634.72;5029827;28;20037;-73
2023/03/21 01:42:56;;;;;;;5.68;3.08;;;;;;;5.62;100.00;95634.84;5023929;28;20034;-73
2023/03/21 01:45:59;;;;;;;6.20;3.20;;;;;;;5.55;100.00;95629.75;5025330;28;20041;-73
2023/03/21 01:48:27;;;;;;;5.88;3.20;;;;;;;5.54;100.00;95626.31;5031276;28;20513;-73
2023/03/21 01:50:55;;;;;;;6.38;3.30;;;;;;;5.58;100.00;95618.84;5025229;28;20520;-73
2023/03/21 01:53:28;;;;;;;6.43;3.00;;;;;;;5.57;100.00;95617.25;5029757;28;20037;-73
2023/03/21 01:56:13;;;;;;;5.93;3.00;;;;;;;5.53;100.00;95616.13;5030156;28;20042;-73
2023/03/21 01:58:40;;;;;;;5.40;3.05;;;;;;;5.51;100.00;95608.53;5029447;28;20037;-73
2023/03/21 02:01:07;;;;;;;4.95;3.00;;;;;;;5.55;100.00;95608.88;5025944;28;20046;-73
2023/03/21 02:03:49;;;;;;;4.82;3.10;;;;;;;5.55;100.00;95611.47;5030544;28;20045;-73
2023/03/21 02:06:53;;;;;;;4.85;3.00;;;;;;;5.61;100.00;95615.75;5026611;28;20140;-73
2023/03/21 02:09:22;;;;;;;5.18;2.80;;;;;;;5.60;100.00;95611.53;5025913;28;20168;-72
2023/03/21 02:11:48;;;;;;;5.38;3.17;;;;;;;5.61;100.00;95613.13;5029479;28;20049;-73
2023/03/21 02:14:17;;;;;;;4.28;2.97;;;;;;;5.58;100.00;95607.59;5023277;28;20045;-73
2023/03/21 02:16:53;;;;;;;5.10;2.88;;;;;;;5.58;100.00;95608.38;5028343;28;20029;-73
2023/03/21 02:19:22;;;;;;;4.07;2.80;;;;;;;5.54;100.00;95613.28;5029028;28;20077;-73
2023/03/21 02:22:14;;;;;;;4.25;2.92;;;;;;;5.54;100.00;95602.84;5026270;28;20037;-73
2023/03/21 02:24:50;;;;;;;5.80;3.20;;;;;;;5.52;100.00;95604.13;5035688;28;20041;-73
2023/03/21 02:27:20;;;;;;;5.65;3.00;;;;;;;5.53;100.00;95610.91;5031204;28;20042;-73
2023/03/21 02:30:20;;;;;;;5.00;3.20;;;;;;;5.48;100.00;95613.44;5026525;28;20130;-72
2023/03/21 02:33:10;;;;;;;5.45;3.28;;;;;;;5.61;100.00;95618.34;5030533;28;20079;-73
2023/03/21 02:35:51;;;;;;;6.93;3.53;;;;;;;5.62;100.00;95616.56;5022849;28;20049;-73
2023/03/21 02:38:19;;;;;;;5.00;3.13;;;;;;;5.61;100.00;95613.13;5028511;28;20109;-73
2023/03/21 02:40:56;;;;;;;4.88;3.05;;;;;;;5.62;100.00;95622.56;5028721;28;20489;-74
2023/03/21 02:43:43;;;;;;;4.43;2.90;;;;;;;5.56;100.00;95615.69;5019805;28;20041;-72
2023/03/21 02:46:15;;;;;;;8.57;3.65;;;;;;;5.60;100.00;95616.75;5024199;28;20090;-73
2023/03/21 02:48:56;;;;;;;5.22;2.90;;;;;;;5.54;100.00;95618.50;5020771;28;20041;-73
2023/03/21 02:51:24;;;;;;;5.18;3.28;;;;;;;5.54;100.00;95612.50;5036550;28;20132;-73
2023/03/21 02:53:59;;;;;;;4.60;3.10;;;;;;;5.54;100.00;95612.50;5029300;28;20041;-73
2023/03/21 02:56:26;;;;;;;5.18;2.90;;;;;;;5.50;100.00;95606.16;5021460;28;20606;-73
2023/03/21 02:58:52;;;;;;;5.38;3.05;;;;;;;5.49;100.00;95609.81;5019977;28;20092;-74
2023/03/21 03:01:18;;;;;;;6.85;3.38;;;;;;;5.53;100.00;95610.91;5028756;28;20049;-73
2023/03/21 03:03:44;;;;;;;5.45;3.17;;;;;;;5.51;100.00;95623.41;5026300;28;20052;-73
2023/03/21 03:06:22;;;;;;;8.18;3.17;;;;;;;5.46;100.00;95605.84;5025791;28;20041;-73
2023/03/21 03:09:03;;;;;;;4.97;3.05;;;;;;;5.45;100.00;95619.13;5028109;28;20046;-73
2023/03/21 03:11:34;;;;;;;6.03;3.17;;;;;;;5.42;100.00;95609.16;5020179;28;20038;-73
2023/03/21 03:14:25;;;;;;;6.32;3.50;;;;;;;5.47;100.00;95611.84;5027999;28;20045;-73
2023/03/21 03:17:29;;;;;;;6.50;3.10;;;;;;;5.49;100.00;95609.81;5027965;28;20053;-72
2023/03/21 03:20:23;;;;;;;4.95;3.17;;;;;;;5.51;100.00;95612.97;5023083;28;20054;-72
2023/03/21 03:22:58;;;;;;;7.40;3.35;;;;;;;5.51;100.00;95605.13;5026179;28;20112;-72
2023/03/21 03:25:34;;;;;;;6.07;3.47;;;;;;;5.45;100.00;95598.25;5027630;28;20045;-72
2023/03/21 03:28:04;;;;;;;4.95;3.35;;;;;;;5.45;100.00;95603.47;5025361;28;20108;-72
2023/03/21 03:30:30;;;;;;;6.15;3.42;;;;;;;5.47;100.00;95604.78;5026407;28;20037;-72
2023/03/21 03:33:01;;;;;;;5.95;3.20;;;;;;;5.46;100.00;95599.81;5029939;28;20524;-71
2023/03/21 03:35:28;;;;;;;8.15;3.60;;;;;;;5.44;100.00;95597.44;5026120;28;20037;-72
2023/03/21 03:37:57;;;;;;;7.28;3.33;;;;;;;5.48;100.00;95600.38;5023020;28;20102;-72
2023/03/21 03:40:30;;;;;;;7.05;3.67;;;;;;;5.43;100.00;95595.88;5026729;28;20049;-74
2023/03/21 03:43:03;;;;;;;6.63;3.20;;;;;;;5.42;100.00;95594.28;5024709;28;20088;-72
2023/03/21 03:45:35;;;;;;;5.60;3.42;;;;;;;5.39;100.00;95594.75;5025668;28;20290;-72
2023/03/21 03:48:12;;;;;;;5.90;3.33;;;;;;;5.38;100.00;95601.78;5028591;28;20068;-71
2023/03/21 03:50:43;;;;;;;6.78;3.40;;;;;;;5.41;100.00;95591.91;5028982;28;20042;-73
2023/03/21 03:53:21;;;;;;;5.63;3.45;;;;;;;5.36;100.00;95590.78;5026678;28;20049;-73
2023/03/21 03:55:48;;;;;;;4.38;3.10;;;;;;;5.40;100.00;95595.53;5023994;28;20428;-73
2023/03/21 03:58:18;;;;;;;5.78;3.47;;;;;;;5.53;100.00;95600.47;5026247;28;20416;-74
2023/03/21 04:00:44;;;;;;;5.53;3.30;;;;;;;5.52;100.00;95594.47;5027417;28;20042;-73
2023/03/21 04:03:10;;;;;;;6.72;3.80;;;;;;;5.55;100.00;95599.19;5029570;28;20038;-74
2023/03/21 04:05:36;;;;;;;8.00;3.60;;;;;;;5.53;100.00;95600.47;5020828;28;20046;-74
2023/03/21 04:08:02;;;;;;;5.78;3.35;;;;;;;5.52;100.00;95598.91;5024735;28;20041;-73
2023/03/21 04:10:28;;;;;;;5.32;3.60;;;;;;;5.50;100.00;95601.75;5025830;28;20045;-73
2023/03/21 04:12:53;;;;;;;5.50;3.63;;;;;;;5.47;100.00;95601.41;5025942;28;20053;-74
2023/03/21 04:15:19;;;;;;;5.45;3.33;;;;;;;5.45;100.00;95598.25;5021415;28;20037;-74
2023/03/21 04:17:45;;;;;;;7.45;3.63;;;;;;;5.46;100.00;95594.59;5025595;28;20044;-73
2023/03/21 04:20:10;;;;;;;6.53;3.80;;;;;;;5.43;100.00;95595.88;5026878;28;20037;-73
2023/03/21 04:22:36;;;;;;;6.32;4.05;;;;;;;5.46;100.00;95589.38;5025410;28;20674;-73
2023/03/21 04:25:04;;;;;;;6.72;4.05;;;;;;;5.40;100.00;95592.94;5026308;28;20494;-73
2023/03/21 04:27:31;;;;;;;6.28;3.70;;;;;;;5.47;100.00;95593.56;5027782;28;20509;-74
2023/03/21 04:29:57;;;;;;;9.50;4.43;;;;;;;5.49;100.00;95588.94;5025029;28;20042;-73
2023/03/21 04:32:25;;;;;;;7.00;4.10;;;;;;;5.46;100.00;95584.16;5026283;28;20041;-73
2023/03/21 04:34:52;;;;;;;7.43;4.00;;;;;;;5.45;100.00;95582.59;5023758;28;20037;-74
2023/03/21 04:37:20;;;;;;;9.00;4.03;;;;;;;5.44;100.00;95587.00;5025350;28;20060;-74
2023/03/21 04:39:46;;;;;;;5.93;3.92;;;;;;;5.44;100.00;95586.22;5026813;28;20046;-74
2023/03/21 04:42:17;;;;;;;6.05;3.95;;;;;;;5.44;100.00;95587.00;5022587;28;20428;-74
2023/03/21 04:44:44;;;;;;;9.68;3.92;;;;;;;5.40;100.00;95585.09;5028487;28;20064;-73
2023/03/21 04:47:09;;;;;;;5.35;3.63;;;;;;;5.38;100.00;95588.72;5024971;28;20041;-73
2023/03/21 04:49:35;;;;;;;6.70;3.33;;;;;;;5.38;100.00;95583.50;5030393;28;20049;-74
2023/03/21 04:52:01;;;;;;;6.95;3.70;;;;;;;5.37;100.00;95575.91;5027204;28;20049;-74
2023/03/21 04:54:27;;;;;;;6.30;4.00;;;;;;;5.36;100.00;95580.34;5031236;28;20489;-74
2023/03/21 04:56:52;;;;;;;5.95;3.50;;;;;;;5.32;100.00;95574.00;5027253;28;20044;-74
2023/03/21 04:59:18;;;;;;;7.88;3.72;;;;;;;5.32;100.00;95579.22;5026778;28;20037;-74
2023/03/21 05:01:44;;;;;;;6.10;3.97;;;;;;;5.31;100.00;95582.06;5025076;28;20041;-73
2023/03/21 05:04:12;;;;;;;6.43;3.92;;;;;;;5.35;100.00;95583.19;5029739;28;20045;-74
2023/03/21 05:06:38;;;;;;;6.95;3.97;;;;;;;5.35;100.00;95586.59;5032095;28;20041;-73
2023/03/21 05:09:05;;;;;;;7.35;3.60;;;;;;;5.27;100.00;95586.97;5030561;28;20053;-73
2023/03/21 05:11:34;;;;;;;5.93;3.53;;;;;;;5.19;100.00;95584.75;5026630;28;20772;-72
2023/03/21 05:14:00;;;;;;;7.10;3.72;;;;;;;5.18;100.00;95577.94;5025896;28;20049;-74
2023/03/21 05:16:29;;;;;;;7.97;3.72;;;;;;;5.25;100.00;95591.63;5026447;28;20033;-73
2023/03/21 05:19:02;;;;;;;9.00;3.72;;;;;;;5.18;100.00;95586.53;5030417;28;20417;-73
2023/03/21 05:21:33;;;;;;;6.38;3.50;;;;;;;5.20;100.00;95581.09;5027532;28;20137;-73
2023/03/21 05:24:02;;;;;;;7.30;3.63;;;;;;;5.16;100.00;95580.00;5030325;28;20045;-73
2023/03/21 05:26:28;;;;;;;5.90;3.60;;;;;;;5.17;100.00;95576.34;5029220;28;20095;-75
2023/03/21 05:28:54;;;;;;;6.18;4.03;;;;;;;5.18;100.00;95586.53;5026430;28;20049;-72
2023/03/21 05:31:20;;;;;;;8.00;4.10;;;;;;;5.18;100.00;95588.38;5030671;28;20033;-73
2023/03/21 05:33:46;;;;;;;9.70;4.10;;;;;;;5.22;100.00;95584.25;5023509;28;20041;-72
2023/03/21 05:36:13;;;;;;;7.28;3.83;;;;;;;5.25;100.00;95583.81;5023253;28;20056;-73
2023/03/21 05:38:44;;;;;;;8.65;4.35;;;;;;;5.28;100.00;95575.50;5026274;28;20416;-73
2023/03/21 05:41:10;;;;;;;7.88;4.18;;;;;;;5.34;100.00;95576.38;5028584;28;20060;-72
2023/03/21 05:43:36;;;;;;;7.40;4.15;;;;;;;5.34;100.00;95577.19;5023788;28;20041;-73
2023/03/21 05:46:02;;;;;;;9.23;4.00;;;;;;;5.37;100.00;95581.94;5028614;28;20041;-73
2023/03/21 05:48:27;;;;;;;8.60;4.88;;;;;;;5.42;100.00;95588.28;5031083;28;20121;-73
2023/03/21 05:50:53;;;;;;;8.57;4.57;;;;;;;5.45;100.00;95593.03;5023177;28;20568;-73
2023/03/21 05:53:19;;;;;;;9.85;4.57;;;;;;;5.47;100.00;95598.78;5029194;28;20041;-73
2023/03/21 05:55:44;;;;;;;7.05;4.57;;;;;;;5.48;100.00;95592.56;5028477;28;20103;-73
2023/03/21 05:58:10;;;;;;;9.85;4.50;;;;;;;5.50;100.00;95590.50;5028393;28;20666;-73
2023/03/21 06:00:35;;;;;;;8.55;4.95;;;;;;;5.66;100.00;95597.56;5024485;28;20045;-73
2023/03/21 06:03:01;;;;;;;9.77;4.82;;;;;;;5.76;100.00;95598.75;5028569;28;20060;-72
2023/03/21 06:05:26;;;;;;;7.47;4.60;;;;;;;5.81;100.00;95596.25;5024874;28;20041;-73
2023/03/21 06:07:52;;;;;;;9.07;4.78;;;;;;;5.93;100.00;95599.56;5027571;28;20049;-72
2023/03/21 06:10:17;;;;;;;9.70;4.90;;;;;;;6.01;100.00;95596.59;5021922;28;20045;-73
2023/03/21 06:12:43;;;;;;;10.73;4.90;;;;;;;6.14;100.00;95602.53;5028145;28;20095;-73
2023/03/21 06:15:09;;;;;;;7.43;4.47;;;;;;;6.21;100.00;95605.78;5028914;28;20049;-74
2023/03/21 06:17:35;;;;;;;9.18;4.97;;;;;;;6.26;100.00;95603.22;5028086;28;20041;-74
2023/03/21 06:20:03;;;;;;;11.23;4.93;;;;;;;6.37;100.00;95604.16;5028731;28;20041;-74
2023/03/21 06:22:29;;;;;;;7.05;4.55;;;;;;;6.34;100.00;95605.44;5028474;28;20452;-74
2023/03/21 06:24:55;;;;;;;11.35;5.18;;;;;;;6.32;100.00;95606.69;5025701;28;20075;-73
2023/03/21 06:27:21;;;;;;;11.73;5.10;;;;;;;6.37;100.00;95604.94;5027530;28;20475;-74
2023/03/21 06:29:47;;;;;;;7.97;4.95;;;;;;;6.45;100.00;95605.56;5028131;28;20049;-75
2023/03/21 06:32:12;;;;;;;7.47;4.35;;;;;;;6.53;100.00;95613.00;5023364;28;20112;-75
2023/03/21 06:34:38;;;;;;;10.93;5.70;;;;;;;6.49;100.00;95607.47;5028510;28;20044;-74
2023/03/21 06:37:04;;;;;;;8.88;5.35;;;;;;;6.54;100.00;95609.38;5024280;28;20045;-76
2023/03/21 06:39:30;;;;;;;11.50;4.70;;;;;;;6.62;100.00;95611.56;5028742;28;20148;-76
2023/03/21 06:41:56;;;;;;;8.32;5.13;;;;;;;6.66;100.00;95607.44;5027150;28;20524;-78
2023/03/21 06:44:23;;;;;;;12.75;4.57;;;;;;;6.86;100.00;95613.97;5023989;28;20472;-80
2023/03/21 06:46:50;;;;;;;12.32;4.85;;;;;;;6.83;100.00;95617.84;5025655;28;20046;-76
2023/03/21 06:49:16;;;;;;;12.00;5.95;;;;;;;6.85;100.00;95620.22;5030620;28;20045;-78
2023/03/21 06:51:41;;;;;;;7.95;5.05;;;;;;;6.96;100.00;95606.25;5027624;28;20041;-78
2023/03/21 06:54:07;;;;;;;12.80;5.00;;;;;;;6.93;100.00;95625.03;5019360;28;20052;-76
2023/03/21 06:56:33;;;;;;;11.95;4.78;;;;;;;7.01;100.00;95622.00;5030064;28;20111;-75
2023/03/21 06:58:58;;;;;;;7.97;4.97;;;;;;;7.05;100.00;95617.88;5029024;28;20501;-75
2023/03/21 07:01:26;;;;;;;10.73;4.97;;;;;;;7.14;100.00;95614.81;5025046;28;20406;-77
2023/03/21 07:03:56;;;;;;;8.57;4.93;;;;;;;7.18;100.00;95613.28;5026284;28;20537;-75
2023/03/21 07:06:25;;;;;;;8.55;5.38;;;;;;;7.24;100.00;95617.53;5023039;28;20037;-74
2023/03/21 07:08:51;;;;;;;12.45;5.80;;;;;;;7.29;100.00;95612.38;5027453;28;20493;-74
2023/03/21 07:11:18;;;;;;;17.90;6.40;;;;;;;7.36;100.00;95610.34;5028087;28;20049;-76
2023/03/21 07:13:43;;;;;;;10.60;5.57;;;;;;;7.48;100.00;95612.03;5027990;28;20057;-76
2023/03/21 07:16:09;;;;;;;10.75;5.65;;;;;;;7.56;100.00;95614.22;5029415;28;20041;-76
2023/03/21 07:18:35;;;;;;;13.10;6.00;;;;;;;7.67;100.00;95609.84;5029120;28;20041;-76
2023/03/21 07:21:01;;;;;;;12.15;5.50;;;;;;;7.79;100.00;95613.91;5027228;28;20045;-75
2023/03/21 07:23:27;;;;;;;10.20;5.57;;;;;;;7.88;100.00;95616.09;5028467;28;20061;-75
2023/03/21 07:25:53;;;;;;;8.65;5.78;;;;;;;7.90;100.00;95614.00;5028202;28;20045;-75
2023/03/21 07:28:20;;;;;;;12.32;5.10;;;;;;;7.88;100.00;95616.09;5023034;28;20497;-75
2023/03/21 07:30:54;;;;;;;8.13;5.30;;;;;;;7.99;100.00;95612.50;5020608;28;20042;-75
2023/03/21 07:33:21;;;;;;;9.10;5.32;;;;;;;7.98;100.00;95616.16;5035599;28;20087;-75
2023/03/21 07:35:52;;;;;;;10.25;5.97;;;;;;;8.08;100.00;95611.00;5024837;28;20044;-77
2023/03/21 07:38:18;;;;;;;14.32;5.60;;;;;;;8.18;100.00;95614.75;5027400;28;20125;-76
2023/03/21 07:40:45;;;;;;;10.50;6.20;;;;;;;8.29;100.00;95616.41;5027517;28;20045;-76
2023/03/21 07:43:11;;;;;;;10.57;6.00;;;;;;;8.30;100.00;95617.97;5025234;28;20118;-75
2023/03/21 07:45:36;;;;;;;12.00;5.80;;;;;;;8.24;100.00;95618.97;5030190;28;20489;-75
2023/03/21 07:48:02;;;;;;;13.00;5.93;;;;;;;8.38;100.00;95617.50;5027422;28;20054;-75
2023/03/21 07:50:28;;;;;;;12.48;5.32;;;;;;;8.43;100.00;95617.56;5029470;28;20525;-75
2023/03/21 07:52:53;;;;;;;10.50;5.72;;;;;;;8.42;100.00;95615.97;5023604;28;20037;-75
2023/03/21 07:55:19;;;;;;;11.70;5.88;;;;;;;8.34;100.00;95613.81;5028254;28;20037;-75
2023/03/21 07:57:48;;;;;;;9.75;5.70;;;;;;;8.46;100.00;95617.06;5029475;28;20037;-76
2023/03/21 08:00:21;;;;;;;11.93;5.82;;;;;;;8.76;100.00;95618.28;5020404;28;20038;-74
2023/03/21 08:02:55;;;;;;;14.25;6.28;;;;;;;8.63;100.00;95618.72;5054425;28;20105;-73
2023/03/21 08:05:27;;;;;;;16.63;6.13;;;;;;;8.84;100.00;95623.03;5054720;28;20025;-74
2023/03/21 08:07:53;;;;;;;11.27;5.85;;;;;;;8.87;100.00;95610.47;5050651;28;20045;-74
2023/03/21 08:10:19;;;;;;;10.95;5.78;;;;;;;8.71;100.00;95617.47;5056260;28;20040;-74
2023/03/21 08:12:45;;;;;;;11.07;6.25;;;;;;;8.66;100.00;95611.16;5054110;28;20294;-74
2023/03/21 08:15:12;;;;;;;13.55;5.82;;;;;;;8.77;100.00;95617.22;5052488;28;20100;-72
2023/03/21 08:17:38;;;;;;;11.35;5.80;;;;;;;8.79;100.00;95625.66;5054063;28;20047;-72
2023/03/21 08:20:10;;;;;;;8.60;5.22;;;;;;;8.92;100.00;95620.97;5054756;28;20044;-73
2023/03/21 08:22:36;;;;;;;10.52;5.38;;;;;;;8.78;100.00;95616.19;5053417;28;20048;-73
2023/03/21 08:25:04;;;;;;;11.48;6.30;;;;;;;8.77;100.00;95617.22;5032521;28;20041;-75
2023/03/21 08:27:31;;;;;;;12.05;5.47;;;;;;;8.80;100.00;95621.97;5028961;28;20065;-76
2023/03/21 08:29:57;;;;;;;9.68;5.60;;;;;;;8.80;100.00;95608.06;5023774;28;20045;-75
2023/03/21 08:32:28;;;;;;;11.75;5.38;;;;;;;9.06;100.00;95613.44;5025107;28;20060;-76
2023/03/21 08:35:01;;;;;;;11.82;5.40;;;;;;;9.07;100.00;95610.56;5026469;28;20044;-75
2023/03/21 08:37:27;;;;;;;10.50;5.45;;;;;;;9.13;100.00;95604.25;5027346;28;20044;-75
2023/03/21 08:39:53;;;;;;;11.50;5.40;;;;;;;9.00;100.00;95596.88;5025934;28;20041;-76
2023/03/21 08:42:20;;;;;;;14.25;5.65;;;;;;;8.91;100.00;95604.44;5027311;28;20041;-76
2023/03/21 08:44:46;;;;;;;7.10;4.75;;;;;;;8.93;100.00;95612.06;5021272;28;20583;-76
2023/03/21 08:47:11;;;;;;;12.27;4.93;;;;;;;9.13;100.00;95599.00;5025805;28;20050;-75
2023/03/21 08:49:37;;;;;;;9.98;5.03;;;;;;;9.41;100.00;95604.88;5044028;28;20045;-75
2023/03/21 08:52:03;;;;;;;8.32;4.97;;;;;;;9.67;100.00;95612.81;5025035;28;20049;-76
2023/03/21 08:54:29;;;;;;;8.50;4.90;;;;;;;9.78;100.00;95609.13;5022901;28;20535;-75
2023/03/21 08:56:54;;;;;;;9.73;4.88;;;;;;;9.60;100.00;95612.28;5026216;28;20037;-75
2023/03/21 08:59:20;;;;;;;9.05;5.32;;;;;;;9.58;100.00;95603.84;5028626;28;20064;-76
2023/03/21 09:01:45;;;;;;;9.75;4.80;;;;;;;9.54;100.00;95604.38;5021025;28;20504;-76
2023/03/21 09:04:11;;;;;;;8.77;4.80;;;;;;;9.77;100.00;95602.31;5024326;28;20033;-75
2023/03/21 09:06:39;;;;;;;9.60;4.97;;;;;;;9.95;100.00;95593.13;5026279;28;20041;-75
2023/03/21 09:09:07;;;;;;;8.05;4.70;;;;;;;9.89;100.00;95597.59;5026181;28;20045;-74
2023/03/21 09:11:33;;;;;;;8.38;4.95;;;;;;;9.82;100.00;95594.44;5026365;28;20041;-74
2023/03/21 09:13:59;;;;;;;8.00;4.53;;;;;;;9.87;100.00;95586.56;5025046;28;20045;-74
2023/03/21 09:16:24;;;;;;;6.63;3.88;;;;;;;10.09;100.00;95593.38;5022938;28;20096;-75
2023/03/21 09:18:54;;;;;;;5.93;3.45;;;;;;;10.48;100.00;95592.06;5025311;28;20045;-73
2023/03/21 09:21:22;;;;;;;5.53;3.30;;;;;;;10.17;100.00;95579.72;5022474;28;20045;-74
2023/03/21 09:23:51;;;;;;;6.90;3.20;;;;;;;10.28;100.00;95588.38;5017594;28;20504;-74
2023/03/21 09:26:18;;;;;;;4.90;3.30;;;;;;;10.11;100.00;95591.28;5024756;28;20034;-74
2023/03/21 09:28:45;;;;;;;5.60;2.97;;;;;;;10.11;100.00;95588.66;5021208;28;20041;-74
2023/03/21 09:31:13;;;;;;;7.22;3.40;;;;;;;10.44;100.00;95583.91;5017635;28;20048;-74
2023/03/21 09:33:39;;;;;;;5.38;3.25;;;;;;;10.64;100.00;95587.56;5016985;28;20049;-74
2023/03/21 09:36:10;;;;;;;5.95;2.97;;;;;;;10.54;100.00;95578.66;5027731;28;20041;-74
2023/03/21 09:38:39;;;;;;;6.30;2.83;;;;;;;10.54;100.00;95578.66;5031551;28;20061;-73
2023/03/21 09:41:24;;;;;;;5.65;2.90;;;;;;;10.60;100.00;95581.25;5026503;28;20171;-74
2023/03/21 09:43:58;;;;;;;;;;;;;;;11.04;100.00;95591.88;5026752;28;20661;-74
2023/03/21 09:47:05;;;;;;;4.55;2.67;;;;;;;11.02;100.00;95587.94;5026621;28;19925;-74
2023/03/21 09:49:35;;;;;;;4.47;2.72;;;;;;;11.15;100.00;95570.78;5026018;28;20057;-74
2023/03/21 09:52:11;;;;;;;10.70;3.25;;;;;;;11.35;100.00;95580.41;5023646;28;20045;-73
2023/03/21 09:54:41;;;;;;;4.85;3.00;;;;;;;11.38;100.00;95579.91;5018852;28;20508;-74
2023/03/21 09:57:36;;;;;;;4.70;2.80;;;;;;;11.31;100.00;95577.56;5031548;28;20445;-74
2023/03/21 10:00:08;;;;;;;4.28;3.03;;;;;;;11.84;100.00;95584.88;5029417;28;20041;-73
2023/03/21 10:02:39;;;;;;;4.30;2.65;;;;;;;11.38;100.00;95582.53;5024948;28;20045;-73
2023/03/21 10:05:16;;;;;;;3.72;2.30;;;;;;;11.75;100.00;95581.22;5025962;28;20049;-74
2023/03/21 10:07:47;;;;;;;5.55;2.58;;;;;;;11.81;100.00;95577.50;5030950;28;20034;-74
2023/03/21 10:10:17;;;;;;;5.25;2.53;;;;;;;11.75;100.00;95574.13;5020964;28;20509;-73
2023/03/21 10:12:45;;;;;;;3.75;2.50;;;;;;;12.08;100.00;95570.97;5026267;28;20124;-73
2023/03/21 10:15:16;;;;;;;5.03;2.38;;;;;;;11.55;100.00;95563.69;5027740;28;20041;-74
2023/03/21 10:17:49;;;;;;;4.63;2.40;;;;;;;11.77;100.00;95560.66;5029548;28;20501;-74
2023/03/21 10:20:43;;;;;;;4.47;2.88;;;;;;;11.87;100.00;95565.84;5026458;28;20034;-74
2023/03/21 10:23:15;;;;;;;4.20;2.33;;;;;;;11.85;100.00;95568.00;5017790;28;20060;-74
2023/03/21 10:25:49;;;;;;;4.00;2.60;;;;;;;11.79;100.00;95553.25;5031185;28;20041;-74
2023/03/21 10:28:21;;;;;;;4.05;2.50;;;;;;;11.94;100.00;95561.06;5027388;28;20112;-74
2023/03/21 10:30:51;;;;;;;3.63;2.25;;;;;;;12.48;100.00;95553.19;5025755;28;20075;-74
2023/03/21 10:33:21;;;;;;;3.17;2.25;;;;;;;12.19;100.00;95546.09;5025260;28;20543;-73
2023/03/21 10:35:57;;;;;;;10.65;2.60;;;;;;;12.20;100.00;95547.66;5027812;28;20037;-72
2023/03/21 10:38:24;;;;;;;3.78;2.58;;;;;;;12.84;100.00;95550.16;5028669;28;20116;-73
2023/03/21 10:40:50;;;;;;;6.82;2.80;;;;;;;12.71;98.92;95545.56;5028920;28;20037;-73
2023/03/21 10:43:29;;;;;;;4.38;2.70;;;;;;;12.78;98.72;95546.78;5028536;28;20398;-73
2023/03/21 10:45:56;;;;;;;4.88;2.80;;;;;;;12.34;100.00;95536.44;5028037;28;20045;-73
2023/03/21 10:48:22;;;;;;;6.13;3.00;;;;;;;12.33;100.00;95529.63;5027525;28;20104;-74
2023/03/21 10:50:53;;;;;;;5.55;2.88;;;;;;;12.77;100.00;95533.88;5033851;28;20046;-74
2023/03/21 10:53:28;;;;;;;5.47;2.72;;;;;;;13.19;93.58;95527.00;5024947;28;20041;-73
2023/03/21 10:55:58;;;;;;;5.43;3.20;;;;;;;12.82;90.65;95531.19;5024051;28;20119;-74
2023/03/21 10:58:32;;;;;;;4.45;2.80;;;;;;;13.06;95.95;95525.06;5021871;28;20039;-73
2023/03/21 11:01:01;;;;;;;4.68;3.03;;;;;;;13.64;89.23;95527.44;5022233;28;20041;-72
2023/03/21 11:03:42;;;;;;;4.30;2.75;;;;;;;13.44;90.15;95519.81;5026926;28;20041;-72
2023/03/21 11:06:26;;;;;;;4.22;2.70;;;;;;;13.24;88.15;95526.94;5026444;28;20525;-72
2023/03/21 11:08:59;;;;;;;6.97;3.33;;;;;;;13.39;86.75;95522.53;5022949;28;20040;-72
2023/03/21 11:11:32;;;;;;;6.20;2.72;;;;;;;13.69;87.71;95516.81;5029349;28;20050;-72
2023/03/21 11:14:06;;;;;;;5.50;2.92;;;;;;;14.63;77.68;95518.66;5024897;28;20041;-75
2023/03/21 11:16:40;;;;;;;6.47;2.90;;;;;;;14.33;75.78;95518.91;5028914;28;20516;-75
2023/03/21 11:19:14;;;;;;;;;;;;;;;14.42;77.83;95520.88;5024920;28;20068;-75
2023/03/21 11:21:42;;;;;;;5.93;2.60;;;;;;;14.75;76.40;95508.34;5028729;28;19921;-76
2023/03/21 11:24:14;;;;;;;4.95;2.90;;;;;;;15.79;73.46;95506.91;5032076;28;20046;-76
2023/03/21 11:26:43;;;;;;;5.20;2.50;;;;;;;14.49;71.98;95506.16;5027957;28;21159;-76
2023/03/21 11:29:26;;;;;;;4.38;2.72;;;;;;;14.71;72.28;95502.84;5026972;28;20623;-75
2023/03/21 11:31:52;;;;;;;4.00;2.58;;;;;;;15.68;67.56;95493.84;5030155;28;20493;-75
2023/03/21 11:34:27;;;;;;;3.95;2.70;;;;;;;16.47;64.88;95488.22;5026019;28;20052;-75
2023/03/21 11:36:58;;;;;;;5.15;2.20;;;;;;;16.76;63.10;95485.00;5029424;28;20052;-75
2023/03/21 11:39:32;;;;;;;7.00;2.50;;;;;;;18.44;58.28;95480.06;5027105;28;20574;-74
2023/03/21 11:41:58;;;;;;;;;;;;;;;20.00;50.45;95481.19;5025870;28;20107;-74
2023/03/21 11:44:30;;;;;;;4.93;2.55;;;;;;;20.06;50.44;95469.94;5028996;28;19924;-74